Time;durP1;ratioP1;P1;durP2;ratioP2;P2;SDS_P1;SDS_P2;PMS_P1;PMS_P2;Temp;Humidity;BMP_temperature;BMP_pressure;BME280_temperature;BME280_humidity;BME280_pressure;Samples;Min_cycle;Max_cycle;Signal;HPM_P1;HPM_P2
2022/06/21 00:00:52;;;;;;;9.17;5.07;;;;;;;;;;5133832;27;20205;-75
2022/06/21 00:03:21;;;;;;;12.53;4.93;;;;;;;;;;5134556;27;20231;-75
2022/06/21 00:05:50;;;;;;;8.90;5.33;;;;;;;;;;5121150;27;20222;-74
2022/06/21 00:08:18;;;;;;;8.80;5.47;;;;;;;;;;5117902;27;20280;-75
2022/06/21 00:10:46;;;;;;;10.07;5.70;;;;;;;;;;5112784;28;20197;-75
2022/06/21 00:13:15;;;;;;;11.20;5.43;;;;;;;;;;5114053;28;20281;-75
2022/06/21 00:15:45;;;;;;;9.35;5.32;;;;;;;;;;5113666;28;20900;-75
2022/06/21 00:18:13;;;;;;;10.43;5.40;;;;;;;;;;5113162;28;20253;-75
2022/06/21 00:20:41;;;;;;;13.02;5.55;;;;;;;;;;5110116;27;20237;-75
2022/06/21 00:23:08;;;;;;;9.27;5.18;;;;;;;;;;5113041;28;20237;-75
2022/06/21 00:25:35;;;;;;;8.43;5.50;;;;;;;;;;5113387;28;20280;-75
2022/06/21 00:28:02;;;;;;;10.37;5.50;;;;;;;;;;5103147;28;20586;-75
2022/06/21 00:30:29;;;;;;;14.03;5.80;;;;;;;;;;5120819;27;20246;-75
2022/06/21 00:32:58;;;;;;;10.27;5.70;;;;;;;;;;5125383;27;20292;-75
2022/06/21 00:35:26;;;;;;;10.07;5.30;;;;;;;;;;5112743;27;20388;-75
2022/06/21 00:37:53;;;;;;;9.23;5.87;;;;;;;;;;5113441;28;20297;-74
2022/06/21 00:40:23;;;;;;;12.03;5.80;;;;;;;;;;5111710;28;20208;-75
2022/06/21 00:42:56;;;;;;;13.23;6.30;;;;;;;;;;5113470;27;20198;-75
2022/06/21 00:45:28;;;;;;;11.77;6.37;;;;;;;;;;5112434;28;20248;-74
2022/06/21 00:47:56;;;;;;;12.53;6.40;;;;;;;;;;5112781;28;20190;-75
2022/06/21 00:50:32;;;;;;;10.93;5.93;;;;;;;;;;5111965;28;20752;-74
2022/06/21 00:53:03;;;;;;;10.80;6.30;;;;;;;;;;5112740;28;20285;-75
2022/06/21 00:55:42;;;;;;;12.67;5.90;;;;;;;;;;5112322;28;20876;-74
2022/06/21 00:58:11;;;;;;;9.83;6.13;;;;;;;;;;5107532;28;20304;-75
2022/06/21 01:00:41;;;;;;;14.23;6.13;;;;;;;;;;5112245;28;20630;-75
2022/06/21 01:03:13;;;;;;;11.00;5.93;;;;;;;;;;5112261;28;20241;-74
2022/06/21 01:05:44;;;;;;;13.83;5.90;;;;;;;;;;5112250;28;20260;-74
2022/06/21 01:08:12;;;;;;;13.70;6.00;;;;;;;;;;5112441;28;20276;-74
2022/06/21 01:10:40;;;;;;;10.43;6.10;;;;;;;;;;5112677;28;20281;-75
2022/06/21 01:13:12;;;;;;;10.03;6.07;;;;;;;;;;5112405;28;20641;-75
2022/06/21 01:15:43;;;;;;;12.37;5.83;;;;;;;;;;5112486;28;20288;-75
2022/06/21 01:18:11;;;;;;;12.13;6.47;;;;;;;;;;5120969;27;20217;-75
2022/06/21 01:20:43;;;;;;;12.70;6.47;;;;;;;;;;5122953;27;20227;-75
2022/06/21 01:23:17;;;;;;;11.23;6.00;;;;;;;;;;5120423;27;20212;-75
2022/06/21 01:25:49;;;;;;;11.07;6.10;;;;;;;;;;5112744;28;20287;-75
2022/06/21 01:28:18;;;;;;;9.03;6.10;;;;;;;;;;5096331;28;20281;-74
2022/06/21 01:30:47;;;;;;;12.77;6.43;;;;;;;;;;5112420;28;20280;-75
2022/06/21 01:33:16;;;;;;;13.77;6.93;;;;;;;;;;5121328;27;20236;-75
2022/06/21 01:35:46;;;;;;;10.00;6.50;;;;;;;;;;5116208;27;20688;-75
2022/06/21 01:38:15;;;;;;;13.43;6.70;;;;;;;;;;5111496;28;20304;-74
2022/06/21 01:40:45;;;;;;;11.30;6.33;;;;;;;;;;5111816;28;20697;-75
2022/06/21 01:43:14;;;;;;;11.17;6.17;;;;;;;;;;5111637;27;20246;-74
2022/06/21 01:45:44;;;;;;;11.00;6.57;;;;;;;;;;5111697;28;20716;-74
2022/06/21 01:48:13;;;;;;;12.87;6.47;;;;;;;;;;5111652;27;20621;-75
2022/06/21 01:50:41;;;;;;;10.10;6.13;;;;;;;;;;5111354;27;20232;-75
2022/06/21 01:53:09;;;;;;;10.57;6.00;;;;;;;;;;5111670;28;20290;-75
2022/06/21 01:55:38;;;;;;;13.40;6.43;;;;;;;;;;5110016;28;20281;-75
2022/06/21 01:58:07;;;;;;;11.00;6.43;;;;;;;;;;5111427;28;20316;-75
2022/06/21 02:00:36;;;;;;;10.97;6.30;;;;;;;;;;5111682;28;20285;-75
2022/06/21 02:03:09;;;;;;;9.63;5.80;;;;;;;;;;5114165;27;20724;-74
2022/06/21 02:05:39;;;;;;;13.10;5.97;;;;;;;;;;5113083;28;20312;-75
2022/06/21 02:08:08;;;;;;;10.73;5.87;;;;;;;;;;5114249;27;20206;-75
2022/06/21 02:10:37;;;;;;;10.10;5.77;;;;;;;;;;5122330;27;20246;-75
2022/06/21 02:13:08;;;;;;;9.20;6.10;;;;;;;;;;5111347;28;20301;-75
2022/06/21 02:15:37;;;;;;;7.97;5.20;;;;;;;;;;5128684;27;20232;-75
2022/06/21 02:18:09;;;;;;;9.80;5.57;;;;;;;;;;5128938;27;20304;-75
2022/06/21 02:20:39;;;;;;;10.37;5.20;;;;;;;;;;5114879;28;20216;-75
2022/06/21 02:23:07;;;;;;;9.00;5.17;;;;;;;;;;5112342;28;20712;-75
2022/06/21 02:25:34;;;;;;;7.00;4.63;;;;;;;;;;5129041;28;20276;-75
2022/06/21 02:28:03;;;;;;;9.17;4.80;;;;;;;;;;5111599;28;20236;-75
2022/06/21 02:30:31;;;;;;;9.13;4.83;;;;;;;;;;5111638;28;20281;-75
2022/06/21 02:33:00;;;;;;;9.07;4.70;;;;;;;;;;5111167;28;20221;-75
2022/06/21 02:35:31;;;;;;;6.07;4.57;;;;;;;;;;5111419;28;20283;-75
2022/06/21 02:38:01;;;;;;;9.17;4.77;;;;;;;;;;5111214;28;20259;-75
2022/06/21 02:40:30;;;;;;;11.27;4.60;;;;;;;;;;5112082;28;20198;-75
2022/06/21 02:42:59;;;;;;;8.20;4.37;;;;;;;;;;5129483;28;20276;-75
2022/06/21 02:45:30;;;;;;;7.10;4.07;;;;;;;;;;5125283;27;20300;-75
2022/06/21 02:47:58;;;;;;;8.60;4.10;;;;;;;;;;5111368;28;20233;-74
2022/06/21 02:50:42;;;;;;;5.43;4.20;;;;;;;;;;5122523;28;20243;-75
2022/06/21 02:53:13;;;;;;;6.03;4.47;;;;;;;;;;5111120;28;20225;-75
2022/06/21 02:55:43;;;;;;;6.07;3.93;;;;;;;;;;5111269;28;20232;-75
2022/06/21 02:58:14;;;;;;;7.23;4.40;;;;;;;;;;5109136;28;20233;-75
2022/06/21 03:00:42;;;;;;;8.67;5.43;;;;;;;;;;5114417;28;20280;-75
2022/06/21 03:03:14;;;;;;;6.67;5.10;;;;;;;;;;5122354;28;20205;-75
2022/06/21 03:05:42;;;;;;;6.47;4.60;;;;;;;;;;5121835;28;20315;-75
2022/06/21 03:08:10;;;;;;;5.67;4.60;;;;;;;;;;5123685;27;20296;-75
2022/06/21 03:10:40;;;;;;;5.57;4.40;;;;;;;;;;5123130;27;20327;-75
2022/06/21 03:13:09;;;;;;;5.73;4.17;;;;;;;;;;5123393;27;20225;-75
2022/06/21 03:15:37;;;;;;;6.90;4.13;;;;;;;;;;5122193;27;20284;-75
2022/06/21 03:18:06;;;;;;;6.53;4.33;;;;;;;;;;5126222;27;20213;-75
2022/06/21 03:20:34;;;;;;;7.23;4.17;;;;;;;;;;5129700;27;20279;-75
2022/06/21 03:23:03;;;;;;;6.27;4.13;;;;;;;;;;5122790;27;20287;-75
2022/06/21 03:25:34;;;;;;;6.33;4.10;;;;;;;;;;5117518;27;20225;-75
2022/06/21 03:28:02;;;;;;;5.37;3.63;;;;;;;;;;5126525;27;20275;-75
2022/06/21 03:30:31;;;;;;;6.63;4.10;;;;;;;;;;5126622;27;20197;-75
2022/06/21 03:32:59;;;;;;;7.80;4.13;;;;;;;;;;5120815;27;20308;-75
2022/06/21 03:35:26;;;;;;;6.37;4.60;;;;;;;;;;5126685;27;20280;-75
2022/06/21 03:37:54;;;;;;;5.50;4.07;;;;;;;;;;5124757;27;20277;-75
2022/06/21 03:43:11;;;;;;;7.17;3.70;;;;;;;;;;5123585;27;20674;-75
2022/06/21 03:45:40;;;;;;;4.73;3.77;;;;;;;;;;5122766;27;20327;-75
2022/06/21 03:48:10;;;;;;;6.07;4.30;;;;;;;;;;5115273;27;20243;-75
2022/06/21 03:50:38;;;;;;;7.83;4.23;;;;;;;;;;5125083;27;20279;-75
2022/06/21 03:53:08;;;;;;;6.00;4.33;;;;;;;;;;5119420;27;20280;-75
2022/06/21 03:55:42;;;;;;;5.57;4.27;;;;;;;;;;5127149;27;20661;-75
2022/06/21 03:58:12;;;;;;;6.70;4.87;;;;;;;;;;5124733;27;20306;-75
2022/06/21 04:00:43;;;;;;;5.67;5.00;;;;;;;;;;5122545;27;20277;-75
2022/06/21 04:03:14;;;;;;;7.50;5.80;;;;;;;;;;5119221;27;20563;-75
2022/06/21 04:05:46;;;;;;;7.03;5.67;;;;;;;;;;5135380;27;20351;-75
2022/06/21 04:08:15;;;;;;;6.93;6.00;;;;;;;;;;5134558;27;20572;-75
2022/06/21 04:10:48;;;;;;;6.87;5.67;;;;;;;;;;5134251;27;20670;-75
2022/06/21 04:13:19;;;;;;;9.70;5.30;;;;;;;;;;5134122;27;20284;-75
2022/06/21 04:15:48;;;;;;;7.70;5.07;;;;;;;;;;5125724;27;20326;-75
2022/06/21 04:18:18;;;;;;;7.00;5.30;;;;;;;;;;5134006;27;20215;-75
2022/06/21 04:20:50;;;;;;;7.40;5.17;;;;;;;;;;5133241;27;20912;-75
2022/06/21 04:23:20;;;;;;;8.03;4.97;;;;;;;;;;5141587;27;20254;-75
2022/06/21 04:25:54;;;;;;;7.30;4.80;;;;;;;;;;5137742;27;20199;-75
2022/06/21 04:28:24;;;;;;;7.43;4.70;;;;;;;;;;5133962;27;20830;-75
2022/06/21 04:30:53;;;;;;;6.70;5.20;;;;;;;;;;5133366;27;20575;-75
2022/06/21 04:33:22;;;;;;;6.80;4.80;;;;;;;;;;5133349;27;20233;-75
2022/06/21 04:35:52;;;;;;;6.97;4.60;;;;;;;;;;5133282;27;20288;-75
2022/06/21 04:38:23;;;;;;;7.40;4.87;;;;;;;;;;5133904;27;20678;-75
2022/06/21 04:40:54;;;;;;;7.60;5.47;;;;;;;;;;5133189;27;20743;-75
2022/06/21 04:43:23;;;;;;;7.93;5.43;;;;;;;;;;5133436;27;20229;-75
2022/06/21 04:45:52;;;;;;;7.20;5.13;;;;;;;;;;5132348;27;20251;-75
2022/06/21 04:48:26;;;;;;;8.37;5.67;;;;;;;;;;5133371;27;20630;-75
2022/06/21 04:50:55;;;;;;;7.03;4.80;;;;;;;;;;5132493;27;20640;-76
2022/06/21 04:53:27;;;;;;;6.63;4.90;;;;;;;;;;5133208;27;20209;-75
2022/06/21 04:56:00;;;;;;;8.13;5.43;;;;;;;;;;5139162;27;20234;-75
2022/06/21 04:58:28;;;;;;;8.10;5.20;;;;;;;;;;5140818;27;20219;-75
2022/06/21 05:00:55;;;;;;;9.00;5.00;;;;;;;;;;5133045;27;20197;-75
2022/06/21 05:03:35;;;;;;;4.93;4.47;;;;;;;;;;5135259;27;20239;-75
2022/06/21 05:06:03;;;;;;;7.60;4.10;;;;;;;;;;5132488;27;20268;-75
2022/06/21 05:08:30;;;;;;;7.77;4.30;;;;;;;;;;5113468;27;20285;-75
2022/06/21 05:11:00;;;;;;;7.20;4.70;;;;;;;;;;5112391;28;20280;-74
2022/06/21 05:13:29;;;;;;;7.90;4.57;;;;;;;;;;5111936;27;20339;-75
2022/06/21 05:15:57;;;;;;;7.80;5.20;;;;;;;;;;5112860;27;20304;-74
2022/06/21 05:18:26;;;;;;;5.50;4.20;;;;;;;;;;5113886;27;20285;-74
2022/06/21 05:20:56;;;;;;;5.20;4.63;;;;;;;;;;5133171;27;20232;-74
2022/06/21 05:23:24;;;;;;;6.50;4.30;;;;;;;;;;5122091;27;20237;-74
2022/06/21 05:25:52;;;;;;;6.03;4.40;;;;;;;;;;5114170;27;20749;-75
2022/06/21 05:28:25;;;;;;;7.73;5.00;;;;;;;;;;5120003;27;20232;-75
2022/06/21 05:30:54;;;;;;;8.60;4.70;;;;;;;;;;5111239;28;20682;-74
2022/06/21 05:33:23;;;;;;;9.73;4.70;;;;;;;;;;5112369;28;20380;-74
2022/06/21 05:35:50;;;;;;;6.13;4.40;;;;;;;;;;5111745;27;20232;-74
2022/06/21 05:38:19;;;;;;;6.50;4.80;;;;;;;;;;5112347;28;20224;-74
2022/06/21 05:40:51;;;;;;;5.70;4.35;;;;;;;;;;5122749;27;20220;-74
2022/06/21 05:43:29;;;;;;;9.18;4.63;;;;;;;;;;5131816;27;20236;-74
2022/06/21 05:46:00;;;;;;;8.35;4.70;;;;;;;;;;5114105;27;20317;-74
2022/06/21 05:48:30;;;;;;;5.95;4.55;;;;;;;;;;5111790;28;20229;-74
2022/06/21 05:50:58;;;;;;;7.82;4.97;;;;;;;;;;5111962;27;20682;-74
2022/06/21 05:53:29;;;;;;;9.95;5.10;;;;;;;;;;5111960;28;20279;-74
2022/06/21 05:55:57;;;;;;;8.02;5.18;;;;;;;;;;5116936;27;20740;-74
2022/06/21 05:58:26;;;;;;;7.82;5.03;;;;;;;;;;5116480;27;20287;-75
2022/06/21 06:00:58;;;;;;;8.10;5.57;;;;;;;;;;5123149;27;20284;-75
2022/06/21 06:03:30;;;;;;;9.97;5.27;;;;;;;;;;5119136;27;20225;-75
2022/06/21 06:05:58;;;;;;;7.10;5.23;;;;;;;;;;5111628;28;20284;-74
2022/06/21 06:08:27;;;;;;;11.03;4.97;;;;;;;;;;5109856;28;20293;-74
2022/06/21 06:10:55;;;;;;;7.43;4.80;;;;;;;;;;5106849;27;20286;-74
2022/06/21 06:13:32;;;;;;;8.35;5.45;;;;;;;;;;5099787;27;20198;-74
2022/06/21 06:16:00;;;;;;;8.03;4.77;;;;;;;;;;5111599;28;20591;-74
2022/06/21 06:18:32;;;;;;;9.18;5.63;;;;;;;;;;5128059;27;20587;-74
2022/06/21 06:21:02;;;;;;;8.20;5.53;;;;;;;;;;5132485;27;20228;-74
2022/06/21 06:23:33;;;;;;;8.73;5.18;;;;;;;;;;5132060;28;20205;-74
2022/06/21 06:26:02;;;;;;;11.57;5.80;;;;;;;;;;5112937;28;20677;-74
2022/06/21 06:28:33;;;;;;;6.15;4.82;;;;;;;;;;5125289;28;20201;-74
2022/06/21 06:31:03;;;;;;;6.88;5.22;;;;;;;;;;5109830;28;20657;-74
2022/06/21 06:33:35;;;;;;;10.52;5.95;;;;;;;;;;5111588;28;20649;-74
2022/06/21 06:36:04;;;;;;;8.80;5.25;;;;;;;;;;5111413;28;20617;-74
2022/06/21 06:38:31;;;;;;;8.35;5.63;;;;;;;;;;5111724;28;20284;-74
2022/06/21 06:41:02;;;;;;;6.90;5.18;;;;;;;;;;5111591;28;20253;-74
2022/06/21 06:43:31;;;;;;;7.68;4.97;;;;;;;;;;5115033;28;20288;-74
2022/06/21 06:45:59;;;;;;;9.75;5.20;;;;;;;;;;5115498;27;20209;-74
2022/06/21 06:48:27;;;;;;;12.88;5.63;;;;;;;;;;5115840;28;20224;-74
2022/06/21 06:51:04;;;;;;;9.82;5.30;;;;;;;;;;5115275;28;20225;-74
2022/06/21 06:53:34;;;;;;;9.20;5.15;;;;;;;;;;5115683;28;20201;-74
2022/06/21 06:56:03;;;;;;;6.43;4.82;;;;;;;;;;5115171;28;20703;-74
2022/06/21 06:58:34;;;;;;;8.02;5.25;;;;;;;;;;5116022;28;20201;-75
2022/06/21 07:01:03;;;;;;;7.85;5.10;;;;;;;;;;5115597;28;20264;-74
2022/06/21 07:03:31;;;;;;;7.60;4.82;;;;;;;;;;5116101;28;20204;-74
2022/06/21 07:06:02;;;;;;;8.38;4.60;;;;;;;;;;5128777;27;20824;-74
2022/06/21 07:08:33;;;;;;;6.35;4.55;;;;;;;;;;5115406;27;20559;-74
2022/06/21 07:11:00;;;;;;;6.97;4.38;;;;;;;;;;5132228;27;20629;-74
2022/06/21 07:13:29;;;;;;;6.68;4.28;;;;;;;;;;5094565;28;20701;-75
2022/06/21 07:15:57;;;;;;;7.43;4.22;;;;;;;;;;5106878;28;20214;-74
2022/06/21 07:18:33;;;;;;;9.95;4.55;;;;;;;;;;5114634;27;20285;-75
2022/06/21 07:21:02;;;;;;;7.80;4.30;;;;;;;;;;5117123;27;20308;-74
2022/06/21 07:23:30;;;;;;;7.18;4.75;;;;;;;;;;5120861;27;20280;-74
2022/06/21 07:25:59;;;;;;;7.95;4.53;;;;;;;;;;5115073;28;20198;-74
2022/06/21 07:28:29;;;;;;;6.05;4.13;;;;;;;;;;5123673;27;20289;-74
2022/06/21 07:30:58;;;;;;;7.60;4.32;;;;;;;;;;5135604;27;20293;-74
2022/06/21 07:33:29;;;;;;;7.38;3.85;;;;;;;;;;5129930;27;20205;-75
2022/06/21 07:35:59;;;;;;;7.63;4.20;;;;;;;;;;5114993;28;20292;-74
2022/06/21 07:38:29;;;;;;;6.63;4.10;;;;;;;;;;5114825;28;20284;-75
2022/06/21 07:40:59;;;;;;;6.15;3.72;;;;;;;;;;5114892;28;20234;-75
2022/06/21 07:43:30;;;;;;;5.97;4.07;;;;;;;;;;5114506;28;20236;-75
2022/06/21 07:45:59;;;;;;;7.22;3.70;;;;;;;;;;5114762;28;20759;-75
2022/06/21 07:48:28;;;;;;;4.90;3.60;;;;;;;;;;5114439;28;20201;-75
2022/06/21 07:50:58;;;;;;;5.22;3.47;;;;;;;;;;5117978;27;20193;-74
2022/06/21 07:53:28;;;;;;;6.82;3.65;;;;;;;;;;5133919;27;20289;-75
2022/06/21 07:56:00;;;;;;;6.32;3.63;;;;;;;;;;5121832;27;20229;-75
2022/06/21 07:58:32;;;;;;;5.32;3.60;;;;;;;;;;5114533;28;20198;-75
2022/06/21 08:06:45;;;;;;;5.88;3.38;;;;;;;;;;5127377;27;20633;-75
2022/06/21 08:09:15;;;;;;;5.13;3.83;;;;;;;;;;5134662;27;20273;-75
2022/06/21 08:11:45;;;;;;;6.88;3.05;;;;;;;;;;5134554;27;20292;-75
2022/06/21 08:14:13;;;;;;;5.20;3.50;;;;;;;;;;5134879;27;20232;-75
2022/06/21 08:16:44;;;;;;;4.18;3.58;;;;;;;;;;5134899;27;20235;-75
2022/06/21 08:19:16;;;;;;;6.30;3.45;;;;;;;;;;5134664;27;20197;-75
2022/06/21 08:21:46;;;;;;;5.03;3.22;;;;;;;;;;5134531;27;20295;-75
2022/06/21 08:24:16;;;;;;;5.65;3.42;;;;;;;;;;5134324;27;20200;-75
2022/06/21 08:26:48;;;;;;;6.93;3.67;;;;;;;;;;5134312;27;20232;-75
2022/06/21 08:29:19;;;;;;;8.05;3.50;;;;;;;;;;5134027;27;20232;-75
2022/06/21 08:31:49;;;;;;;6.15;2.95;;;;;;;;;;5134560;27;20288;-75
2022/06/21 08:34:20;;;;;;;4.70;3.17;;;;;;;;;;5134224;27;20228;-76
2022/06/21 08:36:51;;;;;;;5.78;3.53;;;;;;;;;;5133900;27;20232;-75
2022/06/21 08:39:21;;;;;;;7.05;3.67;;;;;;;;;;5134094;27;20704;-76
2022/06/21 08:41:58;;;;;;;5.90;3.13;;;;;;;;;;5134136;27;20225;-75
2022/06/21 08:44:44;;;;;;;7.00;3.20;;;;;;;;;;5134338;27;20256;-76
2022/06/21 08:47:25;;;;;;;5.60;3.20;;;;;;;;;;5133543;27;20201;-75
2022/06/21 08:50:04;;;;;;;6.30;3.05;;;;;;;;;;5133376;27;20261;-73
2022/06/21 08:52:42;;;;;;;5.15;3.13;;;;;;;;;;5149423;27;20585;-73
2022/06/21 08:55:14;;;;;;;5.55;2.90;;;;;;;;;;5113479;28;20205;-75
2022/06/21 08:57:47;;;;;;;3.28;2.75;;;;;;;;;;5113227;28;20206;-76
2022/06/21 09:00:20;;;;;;;5.18;2.88;;;;;;;;;;5132134;27;20297;-75
2022/06/21 09:03:05;;;;;;;6.13;2.90;;;;;;;;;;5154521;27;20255;-76
2022/06/21 09:05:39;;;;;;;5.10;3.25;;;;;;;;;;5131605;27;20269;-75
2022/06/21 09:08:16;;;;;;;4.90;3.13;;;;;;;;;;5122586;27;20197;-76
2022/06/21 09:10:51;;;;;;;4.38;2.88;;;;;;;;;;5120967;27;20197;-75
2022/06/21 09:13:28;;;;;;;4.45;2.80;;;;;;;;;;5113368;27;20333;-75
2022/06/21 09:16:01;;;;;;;6.22;2.97;;;;;;;;;;5113381;28;20229;-75
2022/06/21 09:18:39;;;;;;;5.97;3.40;;;;;;;;;;5112984;28;20721;-76
2022/06/21 09:21:10;;;;;;;3.53;2.90;;;;;;;;;;5111769;28;20274;-75
2022/06/21 09:23:57;;;;;;;5.10;3.45;;;;;;;;;;5112881;28;20207;-75
2022/06/21 09:26:29;;;;;;;5.22;3.20;;;;;;;;;;5112569;28;20553;-75
2022/06/21 09:28:59;;;;;;;3.95;2.80;;;;;;;;;;5122171;27;20232;-76
2022/06/21 09:31:35;;;;;;;4.97;3.30;;;;;;;;;;5133073;27;20280;-75
2022/06/21 09:34:06;;;;;;;5.85;3.20;;;;;;;;;;5113367;27;20283;-76
2022/06/21 09:36:36;;;;;;;4.43;3.00;;;;;;;;;;5112462;28;20233;-76
2022/06/21 09:39:11;;;;;;;4.93;3.03;;;;;;;;;;5112001;28;20285;-75
2022/06/21 09:41:44;;;;;;;3.30;2.75;;;;;;;;;;5117109;27;20307;-76
2022/06/21 09:44:13;;;;;;;4.80;2.97;;;;;;;;;;5111824;28;20217;-76
2022/06/21 09:46:47;;;;;;;3.85;2.35;;;;;;;;;;5112583;28;20629;-76
2022/06/21 09:49:21;;;;;;;4.95;3.00;;;;;;;;;;5111446;28;20208;-76
2022/06/21 09:51:53;;;;;;;4.25;2.75;;;;;;;;;;5112372;28;20225;-76
2022/06/21 09:54:33;;;;;;;3.95;2.40;;;;;;;;;;5112233;28;20745;-76
2022/06/21 09:57:11;;;;;;;3.53;2.70;;;;;;;;;;5111904;28;20209;-76
2022/06/21 09:59:43;;;;;;;4.65;3.03;;;;;;;;;;5111517;28;20716;-76
2022/06/21 10:02:18;;;;;;;4.47;2.83;;;;;;;;;;5111377;28;20289;-76
2022/06/21 10:04:52;;;;;;;3.20;2.50;;;;;;;;;;5114836;27;20595;-76
2022/06/21 10:07:22;;;;;;;4.30;2.55;;;;;;;;;;5125841;27;21695;-76
2022/06/21 10:09:55;;;;;;;3.90;2.95;;;;;;;;;;5107421;28;20240;-76
2022/06/21 10:12:27;;;;;;;5.05;2.50;;;;;;;;;;5119075;27;20255;-76
2022/06/21 10:15:06;;;;;;;3.83;2.97;;;;;;;;;;5119171;27;20224;-76
2022/06/21 10:17:48;;;;;;;3.85;2.80;;;;;;;;;;5131792;27;20228;-76
2022/06/21 10:20:34;;;;;;;2.80;2.40;;;;;;;;;;5099100;28;20256;-76
2022/06/21 10:23:08;;;;;;;4.80;2.90;;;;;;;;;;5109257;28;20321;-76
2022/06/21 10:25:44;;;;;;;2.92;2.70;;;;;;;;;;5109495;28;20287;-75
2022/06/21 10:28:26;;;;;;;5.05;3.05;;;;;;;;;;5109758;28;20555;-76
2022/06/21 10:30:57;;;;;;;3.55;2.55;;;;;;;;;;5109532;28;20617;-75
2022/06/21 10:33:42;;;;;;;5.00;3.00;;;;;;;;;;5097232;28;20226;-76
2022/06/21 10:36:15;;;;;;;3.63;2.75;;;;;;;;;;5088914;28;20233;-76
2022/06/21 10:38:57;;;;;;;3.10;2.70;;;;;;;;;;5099607;28;20226;-75
2022/06/21 10:41:33;;;;;;;4.35;2.58;;;;;;;;;;5098031;28;20218;-74
2022/06/21 10:44:22;;;;;;;4.25;3.15;;;;;;;;;;5099165;28;20232;-74
2022/06/21 10:46:50;;;;;;;4.53;2.40;;;;;;;;;;5099883;28;20289;-76
2022/06/21 10:49:45;;;;;;;5.05;2.72;;;;;;;;;;4741665;28;9999727;-75
2022/06/21 10:52:24;;;;;;;5.40;2.88;;;;;;;;;;5097819;28;20811;-74
2022/06/21 10:55:07;;;;;;;3.65;2.85;;;;;;;;;;5086522;28;20309;-75
2022/06/21 10:57:42;;;;;;;4.07;2.50;;;;;;;;;;5099933;28;20385;-75
2022/06/21 11:03:06;;;;;;;4.22;2.65;;;;;;;;;;5105723;28;20200;-75
2022/06/21 11:05:37;;;;;;;5.47;2.70;;;;;;;;;;5105140;28;20225;-76
2022/06/21 11:08:08;;;;;;;3.25;2.67;;;;;;;;;;5108127;28;20289;-75
2022/06/21 11:10:37;;;;;;;4.28;2.50;;;;;;;;;;5107740;28;20654;-75
2022/06/21 11:13:11;;;;;;;4.03;2.88;;;;;;;;;;5103766;28;20307;-76
2022/06/21 11:15:44;;;;;;;5.38;2.90;;;;;;;;;;5105673;28;20915;-75
2022/06/21 11:18:18;;;;;;;4.32;2.65;;;;;;;;;;5102684;28;20600;-75
2022/06/21 11:20:52;;;;;;;3.80;2.50;;;;;;;;;;5107149;28;20325;-75
2022/06/21 11:23:24;;;;;;;3.85;3.10;;;;;;;;;;5105700;28;20279;-75
2022/06/21 11:25:55;;;;;;;3.30;2.67;;;;;;;;;;5102191;28;20284;-75
2022/06/21 11:28:31;;;;;;;3.55;2.80;;;;;;;;;;5106167;28;20205;-75
2022/06/21 11:31:02;;;;;;;3.28;2.80;;;;;;;;;;5090269;28;20737;-75
2022/06/21 11:33:35;;;;;;;4.03;2.90;;;;;;;;;;5104829;27;20975;-75
2022/06/21 11:36:07;;;;;;;4.82;2.80;;;;;;;;;;5109854;27;20289;-75
2022/06/21 11:38:41;;;;;;;5.05;3.20;;;;;;;;;;5108219;28;20875;-75
2022/06/21 11:41:11;;;;;;;4.65;2.95;;;;;;;;;;5111159;27;20304;-75
2022/06/21 11:43:50;;;;;;;4.30;2.88;;;;;;;;;;5110330;27;20277;-75
2022/06/21 11:46:21;;;;;;;4.80;2.75;;;;;;;;;;5108752;28;20685;-75
2022/06/21 11:49:09;;;;;;;4.15;2.90;;;;;;;;;;5110296;28;20205;-76
2022/06/21 11:51:45;;;;;;;3.80;3.10;;;;;;;;;;5115907;27;20729;-75
2022/06/21 11:54:15;;;;;;;4.75;2.97;;;;;;;;;;5111259;28;20198;-75
2022/06/21 11:56:45;;;;;;;4.82;2.90;;;;;;;;;;5113745;28;20193;-75
2022/06/21 11:59:19;;;;;;;3.30;2.78;;;;;;;;;;5108660;28;20232;-75
2022/06/21 12:01:49;;;;;;;3.75;2.90;;;;;;;;;;5105453;28;20257;-76
2022/06/21 12:04:22;;;;;;;4.30;2.55;;;;;;;;;;5109703;28;20236;-75
2022/06/21 12:06:53;;;;;;;6.88;3.20;;;;;;;;;;5110500;28;20281;-75
2022/06/21 12:09:23;;;;;;;4.80;2.92;;;;;;;;;;5110515;28;20233;-75
2022/06/21 12:12:03;;;;;;;3.47;2.80;;;;;;;;;;5105347;28;20269;-75
2022/06/21 12:14:37;;;;;;;3.70;2.90;;;;;;;;;;5117090;27;20204;-75
2022/06/21 12:17:07;;;;;;;6.75;3.00;;;;;;;;;;5102337;28;20290;-75
2022/06/21 12:19:36;;;;;;;3.90;2.67;;;;;;;;;;5096771;28;20670;-76
2022/06/21 12:22:06;;;;;;;3.42;2.92;;;;;;;;;;5107319;28;20308;-75
2022/06/21 12:24:34;;;;;;;4.05;3.05;;;;;;;;;;5095811;28;20233;-75
2022/06/21 12:27:01;;;;;;;3.10;2.80;;;;;;;;;;5103232;27;20244;-75
2022/06/21 12:29:29;;;;;;;4.03;2.92;;;;;;;;;;5105690;28;20264;-76
2022/06/21 12:32:00;;;;;;;4.47;3.10;;;;;;;;;;5111284;28;20194;-75
2022/06/21 12:34:31;;;;;;;6.53;3.20;;;;;;;;;;5113173;28;20194;-75
2022/06/21 12:37:00;;;;;;;3.65;3.00;;;;;;;;;;5110832;28;20286;-75
2022/06/21 12:39:30;;;;;;;4.15;3.00;;;;;;;;;;5110972;28;20604;-75
2022/06/21 12:42:02;;;;;;;4.35;3.10;;;;;;;;;;5107839;28;20245;-76
2022/06/21 12:44:37;;;;;;;3.28;2.97;;;;;;;;;;5112751;27;20251;-75
2022/06/21 12:47:12;;;;;;;3.22;2.92;;;;;;;;;;5109888;28;20661;-75
2022/06/21 12:49:47;;;;;;;3.60;2.78;;;;;;;;;;5112286;27;20224;-75
2022/06/21 12:52:20;;;;;;;3.85;2.83;;;;;;;;;;5110885;28;20228;-75
2022/06/21 12:54:54;;;;;;;4.32;3.20;;;;;;;;;;5110218;28;20273;-75
2022/06/21 12:57:36;;;;;;;4.25;2.90;;;;;;;;;;5109887;28;20706;-75
2022/06/21 13:00:12;;;;;;;2.85;2.65;;;;;;;;;;5107945;28;20621;-75
2022/06/21 13:02:48;;;;;;;2.60;2.40;;;;;;;;;;5101515;28;20249;-75
2022/06/21 13:05:28;;;;;;;4.63;3.00;;;;;;;;;;5110872;27;20669;-75
2022/06/21 13:08:25;;;;;;;3.63;2.70;;;;;;;;;;5100600;28;20281;-75
2022/06/21 13:10:55;;;;;;;5.15;3.08;;;;;;;;;;5103918;28;20228;-75
2022/06/21 13:13:37;;;;;;;3.72;3.00;;;;;;;;;;5095885;28;20257;-75
2022/06/21 13:16:08;;;;;;;6.38;3.15;;;;;;;;;;5103452;28;20234;-75
2022/06/21 13:18:49;;;;;;;5.03;3.20;;;;;;;;;;5093419;28;20234;-75
2022/06/21 13:21:33;;;;;;;3.40;2.88;;;;;;;;;;5106509;27;20301;-74
2022/06/21 13:24:07;;;;;;;5.30;3.15;;;;;;;;;;5103926;28;20289;-74
2022/06/21 13:26:56;;;;;;;6.53;3.00;;;;;;;;;;5107768;27;20276;-75
2022/06/21 13:29:26;;;;;;;3.90;2.80;;;;;;;;;;5102848;28;20233;-75
2022/06/21 13:31:57;;;;;;;3.17;2.90;;;;;;;;;;5097677;28;20277;-74
2022/06/21 13:34:36;;;;;;;3.53;2.78;;;;;;;;;;5108857;28;20208;-74
2022/06/21 13:37:09;;;;;;;4.15;3.00;;;;;;;;;;5096060;28;20233;-74
2022/06/21 13:39:38;;;;;;;3.30;2.92;;;;;;;;;;5110128;27;20225;-74
2022/06/21 13:44:55;;;;;;;4.55;3.08;;;;;;;;;;5112136;28;20589;-74
2022/06/21 13:47:25;;;;;;;4.38;2.75;;;;;;;;;;5120547;27;20193;-74
2022/06/21 13:49:56;;;;;;;3.50;3.20;;;;;;;;;;5110328;27;20281;-74
2022/06/21 13:52:26;;;;;;;4.55;2.92;;;;;;;;;;5110374;28;20281;-75
2022/06/21 13:54:57;;;;;;;3.20;2.85;;;;;;;;;;5118887;27;20288;-75
2022/06/21 13:57:38;;;;;;;6.10;2.92;;;;;;;;;;5103632;28;20201;-75
2022/06/21 14:00:06;;;;;;;3.90;2.97;;;;;;;;;;5092608;28;20301;-75
2022/06/21 14:02:40;;;;;;;4.25;2.97;;;;;;;;;;5113673;27;20309;-75
2022/06/21 14:05:17;;;;;;;4.15;2.78;;;;;;;;;;5130226;27;20793;-75
2022/06/21 14:07:47;;;;;;;4.15;3.03;;;;;;;;;;5147890;27;20600;-75
2022/06/21 14:10:19;;;;;;;3.65;2.88;;;;;;;;;;5132530;27;20280;-75
2022/06/21 14:12:50;;;;;;;3.90;2.80;;;;;;;;;;5132599;27;20279;-75
2022/06/21 14:15:20;;;;;;;7.53;3.10;;;;;;;;;;5132938;27;20280;-75
2022/06/21 14:17:51;;;;;;;2.88;2.67;;;;;;;;;;5132453;27;20197;-75
2022/06/21 14:20:21;;;;;;;3.72;2.83;;;;;;;;;;5132952;27;20291;-75
2022/06/21 14:22:52;;;;;;;7.32;3.22;;;;;;;;;;5131524;27;20684;-75
2022/06/21 14:25:25;;;;;;;4.43;3.28;;;;;;;;;;5131658;27;20283;-76
2022/06/21 14:27:55;;;;;;;4.18;2.83;;;;;;;;;;5131288;28;20197;-73
2022/06/21 14:30:24;;;;;;;4.00;3.03;;;;;;;;;;5131767;27;20193;-73
2022/06/21 14:32:55;;;;;;;4.88;2.83;;;;;;;;;;5131979;28;20285;-73
2022/06/21 14:35:26;;;;;;;5.82;3.58;;;;;;;;;;5132051;27;20284;-74
2022/06/21 14:37:55;;;;;;;7.38;3.50;;;;;;;;;;5131785;27;20269;-74
2022/06/21 14:40:26;;;;;;;5.45;3.20;;;;;;;;;;5130579;27;20232;-76
2022/06/21 14:42:54;;;;;;;4.57;3.03;;;;;;;;;;5130033;28;20259;-76
2022/06/21 14:45:24;;;;;;;4.45;3.03;;;;;;;;;;5130693;27;20303;-74
2022/06/21 14:47:53;;;;;;;3.78;2.92;;;;;;;;;;5130605;28;20664;-74
2022/06/21 14:50:25;;;;;;;9.45;3.20;;;;;;;;;;5130252;28;20616;-74
2022/06/21 14:53:13;;;;;;;48.03;6.85;;;;;;;;;;5131117;28;20228;-74
2022/06/21 14:55:51;;;;;;;14.13;3.40;;;;;;;;;;5122893;27;20232;-74
2022/06/21 14:58:29;;;;;;;3.95;2.80;;;;;;;;;;5131079;28;20200;-74
2022/06/21 15:01:00;;;;;;;5.78;2.78;;;;;;;;;;5130511;28;20197;-74
2022/06/21 15:03:32;;;;;;;9.60;3.80;;;;;;;;;;5132236;27;20213;-74
2022/06/21 15:06:03;;;;;;;5.97;3.10;;;;;;;;;;5119424;27;20329;-74
2022/06/21 15:08:36;;;;;;;7.22;3.25;;;;;;;;;;5095644;28;20705;-74
2022/06/21 15:11:08;;;;;;;5.18;3.13;;;;;;;;;;5114433;27;20193;-74
2022/06/21 15:13:38;;;;;;;3.08;2.75;;;;;;;;;;5109782;27;20344;-74
2022/06/21 15:16:17;;;;;;;8.18;3.05;;;;;;;;;;5102617;28;20229;-75
2022/06/21 15:18:57;;;;;;;3.97;3.10;;;;;;;;;;5117175;27;20284;-76
2022/06/21 15:21:27;;;;;;;4.47;2.80;;;;;;;;;;5106110;27;20323;-74